Des Plaines, IL

2:23 AM CDT on July 25, 2016 (GMT -0500)
-K9MJT- -Tittelbach- -Buffalo Grove IL- | | Change Station

Elev 702 ft 42.14 °N, 87.97 °W | Updated 1 hour ago

Overcast
Overcast
76.2 °F
Feels Like 77 °F
N
6.0
Wind Variable Wind from West
Gusts 10.0 mph

Today
High -- | Low -- °F
--% Chance of Precip.
Yesterday
High -- | Low -- °F
Precip. -- in
Pressure 29.95 in
Visibility 10.0 miles
Clouds Mostly Cloudy 3700 ft
Mostly Cloudy 4800 ft
Overcast 25000 ft
Heat Index 77 °F
Dew Point 69.0 °F
Humidity 78%
Rainfall 0.00 in
Snow Depth Not available.
5:38 AM 8:17 PM
Waning Gibbous, 68% visible
METAR KORD 250651Z 22008KT 10SM BKN037 BKN048 OVC250 24/19 A2997 RMK AO2 SLP141 T02390194
Pressure 29.95 in
Visibility 10.0 miles
Clouds Mostly Cloudy 3700 ft
Mostly Cloudy 4800 ft
Overcast 25000 ft
Heat Index 77 °F
Dew Point 69.0 °F
Humidity 78%
Rainfall 0.00 in
Snow Depth Not available.
5:38 AM 8:17 PM
Waning Gibbous, 68% visible
METAR KORD 250651Z 22008KT 10SM BKN037 BKN048 OVC250 24/19 A2997 RMK AO2 SLP141 T02390194

10-Day Weather Forecast

Almanac

Astronomy

Jul. 25, 2016 Rise Set
Actual Time
Civil Twilight
Nautical Twilight
Astronomical Twilight
Moon
Length of Visible Light
Length of Day
Tomorrow will be .
, % of the Moon is Illuminated

Today's Extremes

State Highs State Lows

Community

WunderPhotos

Upload Photos

1,927,274 photos uploaded!

WunderBlog® & News

Nearby

Air Quality

  Air Quality AQ Index Pollutant
Not available.

Snow Depth

Station Depth Elevation

Earthquake Activity

City Distance Mag. Time & Date
Minimum magnitude displayed is 2.5.

Coastal Water Temperatures

Place Temperature

Stations

Nearby Weather Stations

Station Location Temp. Windchill Dew Point Humidity Wind Precip. Elev Updated Type
                   

Watches & Warnings

Flood Advisory
Issued: 9:30 PM CDT Jul. 24, 2016 – National Weather Service

The Flood Advisory continues for
the North Branch Chicago river at Chicago Albany Ave
* until Monday afternoon.
* At 900 PM Sunday the stage was 6.0 feet.
* Action stage is 5.0 feet.
* Flood stage is 7.0 feet.
* Forecast... the river is near crest and will begin falling
overnight.


Lat... Lon 4203 8775 4196 8781 4194 8774 4189 8771
      4194 8765 4198 8767